Shreveport Regional Airport Shreveport US
ICAO: KSHV
IATA: SHV
Category: Large
Scheduled Services: Yes

Elevation: 258 ft
TransAlt. 18000 ft.

Airport Communications:
APP/DEP:119.9
ATIS:128.45
CLNC DEL:124.65
GND:121.9
TWR:121.4
UNICOM:122.95

KSHV Zoom In..

Runways:

(A) RW 06 length 6202 ft width 150 ft
LOC 109.10 / hdg 57

(B) RW 14 length 8351 ft width 200 ft
ILS 110.70 / hdg 139

(C) RW 24 length 6202 ft width 150 ft
LOC 109.10 / hdg 237

(D) RW 32 length 8351 ft width 200 ft
ILS 110.30 / hdg 319

Location; KSHV
Day. 04 / Time. 14.13 Zulu
* Altimeter: 30.03
* Temperature: 13° c. 55.4°f.
* Wind from: 310° Speed 07 kn.
Dewpoint: 12° c.
Visibility: 4 Statute Miles.
Clouds: Broken 700 ft.
Clouds: Overcast 1700 ft.
Conditions: Rain.Conditions: Mist.

KSHV 041413Z 31007KT 4SM RA BR BKN007 OVC017 13/12 A3003 RMK AO2 RAB06 P0001 T01330122 $


Wind From 310°
Speed 07 kn.

 
 
jpsmedia worldairports.se 2020   terms of use